sensor_id;sensor_type;location;lat;lon;timestamp;P1;durP1;ratioP1;P2;durP2;ratioP2
78402;SDS011;67687;43.508;1.504;2023-08-07T00:00:52;4.67;;;0.90;;
78402;SDS011;67687;43.508;1.504;2023-08-07T00:03:19;6.05;;;1.35;;
78402;SDS011;67687;43.508;1.504;2023-08-07T00:05:46;6.00;;;1.52;;
78402;SDS011;67687;43.508;1.504;2023-08-07T00:08:12;5.68;;;1.45;;
78402;SDS011;67687;43.508;1.504;2023-08-07T00:10:39;5.93;;;1.40;;
78402;SDS011;67687;43.508;1.504;2023-08-07T00:13:07;6.20;;;1.40;;
78402;SDS011;67687;43.508;1.504;2023-08-07T00:15:34;5.63;;;1.73;;
78402;SDS011;67687;43.508;1.504;2023-08-07T00:18:02;5.93;;;1.40;;
78402;SDS011;67687;43.508;1.504;2023-08-07T00:20:29;6.22;;;1.52;;
78402;SDS011;67687;43.508;1.504;2023-08-07T00:22:55;7.07;;;1.50;;
78402;SDS011;67687;43.508;1.504;2023-08-07T00:25:22;4.70;;;1.10;;
78402;SDS011;67687;43.508;1.504;2023-08-07T00:27:49;4.55;;;1.35;;
78402;SDS011;67687;43.508;1.504;2023-08-07T00:30:17;4.55;;;1.52;;
78402;SDS011;67687;43.508;1.504;2023-08-07T00:32:44;4.78;;;1.50;;
78402;SDS011;67687;43.508;1.504;2023-08-07T00:35:10;3.67;;;1.10;;
78402;SDS011;67687;43.508;1.504;2023-08-07T00:37:37;5.40;;;1.57;;
78402;SDS011;67687;43.508;1.504;2023-08-07T00:40:04;6.60;;;1.50;;
78402;SDS011;67687;43.508;1.504;2023-08-07T00:42:32;4.45;;;1.15;;
78402;SDS011;67687;43.508;1.504;2023-08-07T00:44:58;5.53;;;1.25;;
78402;SDS011;67687;43.508;1.504;2023-08-07T00:47:28;4.50;;;1.23;;
78402;SDS011;67687;43.508;1.504;2023-08-07T00:49:55;5.27;;;1.20;;
78402;SDS011;67687;43.508;1.504;2023-08-07T00:52:22;4.38;;;1.25;;
78402;SDS011;67687;43.508;1.504;2023-08-07T00:54:49;4.97;;;0.90;;
78402;SDS011;67687;43.508;1.504;2023-08-07T00:57:16;5.18;;;1.35;;
78402;SDS011;67687;43.508;1.504;2023-08-07T00:59:43;5.05;;;1.00;;
78402;SDS011;67687;43.508;1.504;2023-08-07T01:02:10;5.80;;;1.27;;
78402;SDS011;67687;43.508;1.504;2023-08-07T01:04:40;4.43;;;1.00;;
78402;SDS011;67687;43.508;1.504;2023-08-07T01:07:07;3.85;;;1.08;;
78402;SDS011;67687;43.508;1.504;2023-08-07T01:09:34;4.70;;;1.20;;
78402;SDS011;67687;43.508;1.504;2023-08-07T01:12:02;5.65;;;1.10;;
78402;SDS011;67687;43.508;1.504;2023-08-07T01:14:36;4.43;;;0.90;;
78402;SDS011;67687;43.508;1.504;2023-08-07T01:17:05;4.60;;;1.23;;
78402;SDS011;67687;43.508;1.504;2023-08-07T01:19:32;6.95;;;1.10;;
78402;SDS011;67687;43.508;1.504;2023-08-07T01:22:05;5.22;;;1.10;;
78402;SDS011;67687;43.508;1.504;2023-08-07T01:24:32;4.60;;;1.00;;
78402;SDS011;67687;43.508;1.504;2023-08-07T01:27:00;4.13;;;1.10;;
78402;SDS011;67687;43.508;1.504;2023-08-07T01:29:47;3.70;;;1.10;;
78402;SDS011;67687;43.508;1.504;2023-08-07T01:32:17;5.13;;;1.20;;
78402;SDS011;67687;43.508;1.504;2023-08-07T01:34:47;5.20;;;1.05;;
78402;SDS011;67687;43.508;1.504;2023-08-07T01:37:15;5.13;;;1.17;;
78402;SDS011;67687;43.508;1.504;2023-08-07T01:39:43;5.53;;;1.00;;
78402;SDS011;67687;43.508;1.504;2023-08-07T01:42:10;5.68;;;1.10;;
78402;SDS011;67687;43.508;1.504;2023-08-07T01:44:37;6.90;;;1.15;;
78402;SDS011;67687;43.508;1.504;2023-08-07T01:47:04;3.97;;;1.13;;
78402;SDS011;67687;43.508;1.504;2023-08-07T01:49:31;3.42;;;1.08;;
78402;SDS011;67687;43.508;1.504;2023-08-07T01:51:58;5.90;;;1.10;;
78402;SDS011;67687;43.508;1.504;2023-08-07T01:54:26;3.22;;;0.93;;
78402;SDS011;67687;43.508;1.504;2023-08-07T01:56:53;6.30;;;1.13;;
78402;SDS011;67687;43.508;1.504;2023-08-07T01:59:20;5.53;;;1.08;;
78402;SDS011;67687;43.508;1.504;2023-08-07T02:01:46;4.22;;;1.10;;
78402;SDS011;67687;43.508;1.504;2023-08-07T02:04:13;5.13;;;1.00;;
78402;SDS011;67687;43.508;1.504;2023-08-07T02:06:40;4.22;;;1.17;;
78402;SDS011;67687;43.508;1.504;2023-08-07T02:09:06;4.65;;;1.17;;
78402;SDS011;67687;43.508;1.504;2023-08-07T02:11:35;5.05;;;1.20;;
78402;SDS011;67687;43.508;1.504;2023-08-07T02:14:01;5.35;;;1.10;;
78402;SDS011;67687;43.508;1.504;2023-08-07T02:16:28;4.40;;;1.20;;
78402;SDS011;67687;43.508;1.504;2023-08-07T02:18:55;5.88;;;1.08;;
78402;SDS011;67687;43.508;1.504;2023-08-07T02:21:21;4.90;;;0.90;;
78402;SDS011;67687;43.508;1.504;2023-08-07T02:23:48;5.60;;;1.20;;
78402;SDS011;67687;43.508;1.504;2023-08-07T02:26:15;6.95;;;1.30;;
78402;SDS011;67687;43.508;1.504;2023-08-07T02:28:43;3.60;;;1.00;;
78402;SDS011;67687;43.508;1.504;2023-08-07T02:31:10;5.07;;;1.15;;
78402;SDS011;67687;43.508;1.504;2023-08-07T02:33:36;5.97;;;1.17;;
78402;SDS011;67687;43.508;1.504;2023-08-07T02:36:03;4.93;;;1.23;;
78402;SDS011;67687;43.508;1.504;2023-08-07T02:38:30;7.75;;;1.23;;
78402;SDS011;67687;43.508;1.504;2023-08-07T02:40:57;5.87;;;1.10;;
78402;SDS011;67687;43.508;1.504;2023-08-07T02:43:23;5.65;;;1.10;;
78402;SDS011;67687;43.508;1.504;2023-08-07T02:45:52;7.07;;;1.23;;
78402;SDS011;67687;43.508;1.504;2023-08-07T02:48:19;4.25;;;1.25;;
78402;SDS011;67687;43.508;1.504;2023-08-07T02:50:46;5.97;;;1.27;;
78402;SDS011;67687;43.508;1.504;2023-08-07T02:53:12;5.30;;;1.00;;
78402;SDS011;67687;43.508;1.504;2023-08-07T02:55:39;5.50;;;1.30;;
78402;SDS011;67687;43.508;1.504;2023-08-07T02:58:09;4.93;;;1.30;;
78402;SDS011;67687;43.508;1.504;2023-08-07T03:00:36;5.05;;;1.10;;
78402;SDS011;67687;43.508;1.504;2023-08-07T03:03:04;5.43;;;1.02;;
78402;SDS011;67687;43.508;1.504;2023-08-07T03:05:30;3.93;;;1.10;;
78402;SDS011;67687;43.508;1.504;2023-08-07T03:07:57;6.05;;;1.30;;
78402;SDS011;67687;43.508;1.504;2023-08-07T03:10:24;5.50;;;1.10;;
78402;SDS011;67687;43.508;1.504;2023-08-07T03:12:50;3.92;;;0.90;;
78402;SDS011;67687;43.508;1.504;2023-08-07T03:15:17;5.03;;;0.88;;
78402;SDS011;67687;43.508;1.504;2023-08-07T03:17:44;4.97;;;1.03;;
78402;SDS011;67687;43.508;1.504;2023-08-07T03:20:12;4.65;;;1.10;;
78402;SDS011;67687;43.508;1.504;2023-08-07T03:22:39;4.20;;;0.90;;
78402;SDS011;67687;43.508;1.504;2023-08-07T03:25:06;5.82;;;0.93;;
78402;SDS011;67687;43.508;1.504;2023-08-07T03:27:33;4.32;;;1.10;;
78402;SDS011;67687;43.508;1.504;2023-08-07T03:30:00;5.60;;;1.20;;
78402;SDS011;67687;43.508;1.504;2023-08-07T03:32:26;3.72;;;1.10;;
78402;SDS011;67687;43.508;1.504;2023-08-07T03:34:53;4.63;;;1.02;;
78402;SDS011;67687;43.508;1.504;2023-08-07T03:37:21;4.43;;;0.95;;
78402;SDS011;67687;43.508;1.504;2023-08-07T03:39:48;4.32;;;1.45;;
78402;SDS011;67687;43.508;1.504;2023-08-07T03:42:15;5.87;;;1.10;;
78402;SDS011;67687;43.508;1.504;2023-08-07T03:44:42;4.75;;;1.50;;
78402;SDS011;67687;43.508;1.504;2023-08-07T03:47:09;5.30;;;1.33;;
78402;SDS011;67687;43.508;1.504;2023-08-07T03:49:36;5.50;;;1.17;;
78402;SDS011;67687;43.508;1.504;2023-08-07T03:52:03;6.60;;;1.20;;
78402;SDS011;67687;43.508;1.504;2023-08-07T03:54:31;5.67;;;1.10;;
78402;SDS011;67687;43.508;1.504;2023-08-07T03:56:58;4.65;;;1.25;;
78402;SDS011;67687;43.508;1.504;2023-08-07T03:59:24;4.85;;;1.30;;
78402;SDS011;67687;43.508;1.504;2023-08-07T04:01:51;5.53;;;1.27;;
78402;SDS011;67687;43.508;1.504;2023-08-07T04:04:18;4.85;;;1.30;;
78402;SDS011;67687;43.508;1.504;2023-08-07T04:06:45;3.63;;;1.30;;
78402;SDS011;67687;43.508;1.504;2023-08-07T04:09:11;6.22;;;1.30;;
78402;SDS011;67687;43.508;1.504;2023-08-07T04:11:39;5.50;;;1.13;;
78402;SDS011;67687;43.508;1.504;2023-08-07T04:14:06;5.80;;;1.23;;
78402;SDS011;67687;43.508;1.504;2023-08-07T04:16:33;5.07;;;1.10;;
78402;SDS011;67687;43.508;1.504;2023-08-07T04:19:00;5.40;;;0.93;;
78402;SDS011;67687;43.508;1.504;2023-08-07T04:21:26;4.20;;;1.30;;
78402;SDS011;67687;43.508;1.504;2023-08-07T04:23:53;3.70;;;1.05;;
78402;SDS011;67687;43.508;1.504;2023-08-07T04:26:20;4.00;;;1.02;;
78402;SDS011;67687;43.508;1.504;2023-08-07T04:28:48;6.43;;;1.30;;
78402;SDS011;67687;43.508;1.504;2023-08-07T04:31:14;5.57;;;1.40;;
78402;SDS011;67687;43.508;1.504;2023-08-07T04:33:41;3.45;;;1.02;;
78402;SDS011;67687;43.508;1.504;2023-08-07T04:36:08;4.70;;;1.02;;
78402;SDS011;67687;43.508;1.504;2023-08-07T04:38:34;5.18;;;1.00;;
78402;SDS011;67687;43.508;1.504;2023-08-07T04:41:01;4.28;;;1.20;;
78402;SDS011;67687;43.508;1.504;2023-08-07T04:43:28;3.00;;;1.00;;
78402;SDS011;67687;43.508;1.504;2023-08-07T04:45:56;6.78;;;1.15;;
78402;SDS011;67687;43.508;1.504;2023-08-07T04:48:23;3.72;;;1.00;;
78402;SDS011;67687;43.508;1.504;2023-08-07T04:50:50;4.53;;;1.25;;
78402;SDS011;67687;43.508;1.504;2023-08-07T04:53:17;5.28;;;1.55;;
78402;SDS011;67687;43.508;1.504;2023-08-07T04:55:44;5.53;;;1.03;;
78402;SDS011;67687;43.508;1.504;2023-08-07T04:58:11;5.18;;;1.20;;
78402;SDS011;67687;43.508;1.504;2023-08-07T05:00:37;5.07;;;1.00;;
78402;SDS011;67687;43.508;1.504;2023-08-07T05:03:05;6.72;;;1.00;;
78402;SDS011;67687;43.508;1.504;2023-08-07T05:05:32;4.75;;;1.17;;
78402;SDS011;67687;43.508;1.504;2023-08-07T05:07:59;6.63;;;1.57;;
78402;SDS011;67687;43.508;1.504;2023-08-07T05:10:26;4.57;;;1.20;;
78402;SDS011;67687;43.508;1.504;2023-08-07T05:12:52;5.07;;;1.40;;
78402;SDS011;67687;43.508;1.504;2023-08-07T05:15:20;5.57;;;1.13;;
78402;SDS011;67687;43.508;1.504;2023-08-07T05:17:47;6.00;;;1.35;;
78402;SDS011;67687;43.508;1.504;2023-08-07T05:20:15;5.40;;;1.50;;
78402;SDS011;67687;43.508;1.504;2023-08-07T05:22:42;4.57;;;1.77;;
78402;SDS011;67687;43.508;1.504;2023-08-07T05:25:08;5.65;;;2.28;;
78402;SDS011;67687;43.508;1.504;2023-08-07T05:27:37;6.38;;;2.40;;
78402;SDS011;67687;43.508;1.504;2023-08-07T05:30:05;7.85;;;3.70;;
78402;SDS011;67687;43.508;1.504;2023-08-07T05:32:33;5.83;;;3.10;;
78402;SDS011;67687;43.508;1.504;2023-08-07T05:35:02;4.70;;;3.10;;
78402;SDS011;67687;43.508;1.504;2023-08-07T05:37:31;6.35;;;4.55;;
78402;SDS011;67687;43.508;1.504;2023-08-07T05:39:58;3.85;;;2.00;;
78402;SDS011;67687;43.508;1.504;2023-08-07T05:42:24;5.70;;;2.50;;
78402;SDS011;67687;43.508;1.504;2023-08-07T05:44:51;6.97;;;2.70;;
78402;SDS011;67687;43.508;1.504;2023-08-07T05:47:18;5.57;;;2.38;;
78402;SDS011;67687;43.508;1.504;2023-08-07T05:49:45;4.07;;;2.00;;
78402;SDS011;67687;43.508;1.504;2023-08-07T05:52:11;3.95;;;1.50;;
78402;SDS011;67687;43.508;1.504;2023-08-07T05:54:40;5.80;;;2.47;;
78402;SDS011;67687;43.508;1.504;2023-08-07T05:57:06;6.33;;;3.90;;
78402;SDS011;67687;43.508;1.504;2023-08-07T05:59:33;6.93;;;3.85;;
78402;SDS011;67687;43.508;1.504;2023-08-07T06:02:01;6.13;;;3.95;;
78402;SDS011;67687;43.508;1.504;2023-08-07T06:04:28;4.55;;;3.10;;
78402;SDS011;67687;43.508;1.504;2023-08-07T06:06:55;5.45;;;2.85;;
78402;SDS011;67687;43.508;1.504;2023-08-07T06:09:22;6.23;;;3.20;;
78402;SDS011;67687;43.508;1.504;2023-08-07T06:11:50;5.80;;;2.40;;
78402;SDS011;67687;43.508;1.504;2023-08-07T06:14:17;4.63;;;2.38;;
78402;SDS011;67687;43.508;1.504;2023-08-07T06:16:43;6.38;;;2.20;;
78402;SDS011;67687;43.508;1.504;2023-08-07T06:19:10;6.20;;;2.33;;
78402;SDS011;67687;43.508;1.504;2023-08-07T06:21:37;5.43;;;2.37;;
78402;SDS011;67687;43.508;1.504;2023-08-07T06:24:04;6.68;;;2.30;;
78402;SDS011;67687;43.508;1.504;2023-08-07T06:26:30;4.93;;;2.33;;
78402;SDS011;67687;43.508;1.504;2023-08-07T06:28:58;6.28;;;2.20;;
78402;SDS011;67687;43.508;1.504;2023-08-07T06:31:25;7.63;;;2.75;;
78402;SDS011;67687;43.508;1.504;2023-08-07T06:33:52;5.97;;;2.20;;
78402;SDS011;67687;43.508;1.504;2023-08-07T06:36:18;4.90;;;1.70;;
78402;SDS011;67687;43.508;1.504;2023-08-07T06:38:45;5.88;;;1.70;;
78402;SDS011;67687;43.508;1.504;2023-08-07T06:41:12;5.35;;;1.40;;
78402;SDS011;67687;43.508;1.504;2023-08-07T06:43:39;7.47;;;1.40;;
78402;SDS011;67687;43.508;1.504;2023-08-07T06:46:07;4.97;;;1.40;;
78402;SDS011;67687;43.508;1.504;2023-08-07T06:48:33;4.05;;;1.08;;
78402;SDS011;67687;43.508;1.504;2023-08-07T06:51:00;4.53;;;1.42;;
78402;SDS011;67687;43.508;1.504;2023-08-07T06:53:27;6.00;;;1.40;;
78402;SDS011;67687;43.508;1.504;2023-08-07T06:55:53;4.55;;;1.58;;
78402;SDS011;67687;43.508;1.504;2023-08-07T06:58:20;5.77;;;1.30;;
78402;SDS011;67687;43.508;1.504;2023-08-07T07:00:47;4.85;;;1.52;;
78402;SDS011;67687;43.508;1.504;2023-08-07T07:03:15;4.80;;;1.27;;
78402;SDS011;67687;43.508;1.504;2023-08-07T07:05:42;5.25;;;1.50;;
78402;SDS011;67687;43.508;1.504;2023-08-07T07:08:09;7.32;;;1.40;;
78402;SDS011;67687;43.508;1.504;2023-08-07T07:10:35;5.57;;;1.30;;
78402;SDS011;67687;43.508;1.504;2023-08-07T07:13:02;6.00;;;1.58;;
78402;SDS011;67687;43.508;1.504;2023-08-07T07:15:29;5.80;;;1.10;;
78402;SDS011;67687;43.508;1.504;2023-08-07T07:17:56;7.25;;;1.42;;
78402;SDS011;67687;43.508;1.504;2023-08-07T07:20:24;4.40;;;1.30;;
78402;SDS011;67687;43.508;1.504;2023-08-07T07:22:51;4.73;;;1.20;;
78402;SDS011;67687;43.508;1.504;2023-08-07T07:25:18;4.10;;;1.02;;
78402;SDS011;67687;43.508;1.504;2023-08-07T07:27:45;4.97;;;1.05;;
78402;SDS011;67687;43.508;1.504;2023-08-07T07:30:12;5.57;;;1.13;;
78402;SDS011;67687;43.508;1.504;2023-08-07T07:32:38;5.10;;;1.40;;
78402;SDS011;67687;43.508;1.504;2023-08-07T07:35:05;3.57;;;1.30;;
78402;SDS011;67687;43.508;1.504;2023-08-07T07:37:34;5.97;;;1.27;;
78402;SDS011;67687;43.508;1.504;2023-08-07T07:40:00;4.80;;;1.25;;
78402;SDS011;67687;43.508;1.504;2023-08-07T07:42:27;5.07;;;1.10;;
78402;SDS011;67687;43.508;1.504;2023-08-07T07:44:54;6.97;;;1.27;;
78402;SDS011;67687;43.508;1.504;2023-08-07T07:47:21;6.93;;;1.40;;
78402;SDS011;67687;43.508;1.504;2023-08-07T07:49:48;4.18;;;1.10;;
78402;SDS011;67687;43.508;1.504;2023-08-07T07:52:14;5.53;;;1.17;;
78402;SDS011;67687;43.508;1.504;2023-08-07T07:54:43;3.97;;;1.20;;
78402;SDS011;67687;43.508;1.504;2023-08-07T07:57:09;4.70;;;1.40;;
78402;SDS011;67687;43.508;1.504;2023-08-07T07:59:36;3.57;;;0.90;;
78402;SDS011;67687;43.508;1.504;2023-08-07T08:02:03;6.40;;;1.48;;
78402;SDS011;67687;43.508;1.504;2023-08-07T08:04:30;5.75;;;0.90;;
78402;SDS011;67687;43.508;1.504;2023-08-07T08:06:57;5.32;;;1.30;;
78402;SDS011;67687;43.508;1.504;2023-08-07T08:09:24;4.68;;;1.20;;
78402;SDS011;67687;43.508;1.504;2023-08-07T08:11:53;4.43;;;1.07;;
78402;SDS011;67687;43.508;1.504;2023-08-07T08:14:19;4.70;;;1.15;;
78402;SDS011;67687;43.508;1.504;2023-08-07T08:16:46;5.22;;;1.10;;
78402;SDS011;67687;43.508;1.504;2023-08-07T08:19:13;5.22;;;1.10;;
78402;SDS011;67687;43.508;1.504;2023-08-07T08:21:41;3.75;;;1.13;;
78402;SDS011;67687;43.508;1.504;2023-08-07T08:24:08;5.57;;;1.50;;
78402;SDS011;67687;43.508;1.504;2023-08-07T08:26:35;4.57;;;1.10;;
78402;SDS011;67687;43.508;1.504;2023-08-07T08:29:03;7.07;;;1.20;;
78402;SDS011;67687;43.508;1.504;2023-08-07T08:31:30;4.95;;;1.40;;
78402;SDS011;67687;43.508;1.504;2023-08-07T08:33:57;4.18;;;1.23;;
78402;SDS011;67687;43.508;1.504;2023-08-07T08:36:24;5.47;;;1.50;;
78402;SDS011;67687;43.508;1.504;2023-08-07T08:38:50;3.53;;;1.00;;
78402;SDS011;67687;43.508;1.504;2023-08-07T08:41:17;5.07;;;0.93;;
78402;SDS011;67687;43.508;1.504;2023-08-07T08:43:45;3.97;;;1.10;;
78402;SDS011;67687;43.508;1.504;2023-08-07T08:46:15;6.38;;;1.50;;
78402;SDS011;67687;43.508;1.504;2023-08-07T08:48:42;4.07;;;1.10;;
78402;SDS011;67687;43.508;1.504;2023-08-07T08:51:12;4.88;;;1.30;;
78402;SDS011;67687;43.508;1.504;2023-08-07T08:53:39;4.88;;;0.90;;
78402;SDS011;67687;43.508;1.504;2023-08-07T08:56:06;4.95;;;1.00;;
78402;SDS011;67687;43.508;1.504;2023-08-07T08:58:33;4.30;;;1.33;;
78402;SDS011;67687;43.508;1.504;2023-08-07T09:00:59;5.60;;;1.20;;
78402;SDS011;67687;43.508;1.504;2023-08-07T09:03:28;4.75;;;1.20;;
78402;SDS011;67687;43.508;1.504;2023-08-07T09:05:58;4.60;;;1.20;;
78402;SDS011;67687;43.508;1.504;2023-08-07T09:08:25;3.05;;;1.00;;
78402;SDS011;67687;43.508;1.504;2023-08-07T09:10:54;5.70;;;1.40;;
78402;SDS011;67687;43.508;1.504;2023-08-07T09:13:22;4.20;;;1.20;;
78402;SDS011;67687;43.508;1.504;2023-08-07T09:15:50;5.28;;;1.00;;
78402;SDS011;67687;43.508;1.504;2023-08-07T09:18:17;6.28;;;1.63;;
78402;SDS011;67687;43.508;1.504;2023-08-07T09:20:45;3.97;;;1.30;;
78402;SDS011;67687;43.508;1.504;2023-08-07T09:23:14;5.47;;;1.30;;
78402;SDS011;67687;43.508;1.504;2023-08-07T09:25:41;4.27;;;1.40;;
78402;SDS011;67687;43.508;1.504;2023-08-07T09:28:08;5.65;;;1.13;;
78402;SDS011;67687;43.508;1.504;2023-08-07T09:30:36;4.70;;;1.30;;
78402;SDS011;67687;43.508;1.504;2023-08-07T09:33:03;5.55;;;1.40;;
78402;SDS011;67687;43.508;1.504;2023-08-07T09:35:31;5.88;;;1.40;;
78402;SDS011;67687;43.508;1.504;2023-08-07T09:38:00;5.70;;;1.60;;
78402;SDS011;67687;43.508;1.504;2023-08-07T09:40:27;4.28;;;1.17;;
78402;SDS011;67687;43.508;1.504;2023-08-07T09:42:55;4.45;;;1.30;;
78402;SDS011;67687;43.508;1.504;2023-08-07T09:45:23;4.40;;;1.40;;
78402;SDS011;67687;43.508;1.504;2023-08-07T09:47:56;4.68;;;1.33;;
78402;SDS011;67687;43.508;1.504;2023-08-07T09:50:24;4.17;;;1.13;;
78402;SDS011;67687;43.508;1.504;2023-08-07T09:52:52;4.57;;;1.48;;
78402;SDS011;67687;43.508;1.504;2023-08-07T09:55:20;4.45;;;1.17;;
78402;SDS011;67687;43.508;1.504;2023-08-07T09:57:47;5.43;;;1.63;;
78402;SDS011;67687;43.508;1.504;2023-08-07T10:00:15;4.43;;;1.00;;
78402;SDS011;67687;43.508;1.504;2023-08-07T10:02:44;4.27;;;1.20;;
78402;SDS011;67687;43.508;1.504;2023-08-07T10:05:12;3.55;;;1.27;;
78402;SDS011;67687;43.508;1.504;2023-08-07T10:07:39;4.10;;;1.27;;
78402;SDS011;67687;43.508;1.504;2023-08-07T10:10:06;4.45;;;1.98;;
78402;SDS011;67687;43.508;1.504;2023-08-07T10:12:35;5.25;;;1.50;;
78402;SDS011;67687;43.508;1.504;2023-08-07T10:15:02;6.00;;;1.50;;
78402;SDS011;67687;43.508;1.504;2023-08-07T10:17:29;4.10;;;1.30;;
78402;SDS011;67687;43.508;1.504;2023-08-07T10:19:58;3.83;;;1.30;;
78402;SDS011;67687;43.508;1.504;2023-08-07T10:22:25;6.07;;;1.50;;
78402;SDS011;67687;43.508;1.504;2023-08-07T10:24:52;6.45;;;1.40;;
78402;SDS011;67687;43.508;1.504;2023-08-07T10:27:20;6.40;;;1.20;;
78402;SDS011;67687;43.508;1.504;2023-08-07T10:29:51;4.55;;;1.17;;
78402;SDS011;67687;43.508;1.504;2023-08-07T10:32:19;4.13;;;0.98;;
78402;SDS011;67687;43.508;1.504;2023-08-07T10:34:47;4.10;;;1.20;;
78402;SDS011;67687;43.508;1.504;2023-08-07T10:40:04;5.07;;;1.03;;
78402;SDS011;67687;43.508;1.504;2023-08-07T10:42:33;4.50;;;1.10;;
78402;SDS011;67687;43.508;1.504;2023-08-07T10:45:18;3.83;;;1.20;;
78402;SDS011;67687;43.508;1.504;2023-08-07T10:47:56;4.68;;;1.40;;
78402;SDS011;67687;43.508;1.504;2023-08-07T10:50:27;3.65;;;1.10;;
78402;SDS011;67687;43.508;1.504;2023-08-07T10:52:54;5.07;;;1.43;;
78402;SDS011;67687;43.508;1.504;2023-08-07T10:55:21;5.10;;;1.25;;
78402;SDS011;67687;43.508;1.504;2023-08-07T10:57:48;4.53;;;1.30;;
78402;SDS011;67687;43.508;1.504;2023-08-07T11:00:15;5.57;;;1.42;;
78402;SDS011;67687;43.508;1.504;2023-08-07T11:02:47;5.10;;;1.20;;
78402;SDS011;67687;43.508;1.504;2023-08-07T11:05:15;5.63;;;1.47;;
78402;SDS011;67687;43.508;1.504;2023-08-07T11:07:41;4.18;;;1.55;;
78402;SDS011;67687;43.508;1.504;2023-08-07T11:10:09;3.40;;;1.17;;
78402;SDS011;67687;43.508;1.504;2023-08-07T11:12:40;4.18;;;1.30;;
78402;SDS011;67687;43.508;1.504;2023-08-07T11:15:07;5.28;;;1.60;;
78402;SDS011;67687;43.508;1.504;2023-08-07T11:17:39;4.20;;;1.10;;
78402;SDS011;67687;43.508;1.504;2023-08-07T11:20:07;4.88;;;1.52;;
78402;SDS011;67687;43.508;1.504;2023-08-07T11:22:37;4.13;;;1.38;;
78402;SDS011;67687;43.508;1.504;2023-08-07T11:25:05;4.40;;;1.10;;
78402;SDS011;67687;43.508;1.504;2023-08-07T11:27:36;4.88;;;1.10;;
78402;SDS011;67687;43.508;1.504;2023-08-07T11:30:03;3.77;;;1.13;;
78402;SDS011;67687;43.508;1.504;2023-08-07T11:32:31;4.50;;;1.25;;
78402;SDS011;67687;43.508;1.504;2023-08-07T11:34:59;5.70;;;1.73;;
78402;SDS011;67687;43.508;1.504;2023-08-07T11:37:28;4.72;;;1.17;;
78402;SDS011;67687;43.508;1.504;2023-08-07T11:39:59;4.35;;;1.13;;
78402;SDS011;67687;43.508;1.504;2023-08-07T11:42:27;5.77;;;1.70;;
78402;SDS011;67687;43.508;1.504;2023-08-07T11:44:54;4.95;;;1.65;;
78402;SDS011;67687;43.508;1.504;2023-08-07T11:47:20;4.25;;;1.60;;
78402;SDS011;67687;43.508;1.504;2023-08-07T11:49:48;5.40;;;1.42;;
78402;SDS011;67687;43.508;1.504;2023-08-07T11:52:16;5.13;;;1.60;;
78402;SDS011;67687;43.508;1.504;2023-08-07T11:54:45;3.67;;;1.23;;
78402;SDS011;67687;43.508;1.504;2023-08-07T11:57:16;4.72;;;1.48;;
78402;SDS011;67687;43.508;1.504;2023-08-07T11:59:47;4.50;;;1.50;;
78402;SDS011;67687;43.508;1.504;2023-08-07T12:02:14;4.68;;;1.20;;
78402;SDS011;67687;43.508;1.504;2023-08-07T12:04:41;4.82;;;1.60;;
78402;SDS011;67687;43.508;1.504;2023-08-07T12:07:08;5.23;;;1.30;;
78402;SDS011;67687;43.508;1.504;2023-08-07T12:09:37;5.63;;;1.30;;
78402;SDS011;67687;43.508;1.504;2023-08-07T12:12:05;4.32;;;1.48;;
78402;SDS011;67687;43.508;1.504;2023-08-07T12:14:32;4.40;;;1.27;;
78402;SDS011;67687;43.508;1.504;2023-08-07T12:17:00;4.15;;;1.50;;
78402;SDS011;67687;43.508;1.504;2023-08-07T12:19:35;3.93;;;1.37;;
78402;SDS011;67687;43.508;1.504;2023-08-07T12:22:02;4.03;;;1.30;;
78402;SDS011;67687;43.508;1.504;2023-08-07T12:24:31;4.57;;;1.40;;
78402;SDS011;67687;43.508;1.504;2023-08-07T12:27:00;4.80;;;1.40;;
78402;SDS011;67687;43.508;1.504;2023-08-07T12:29:26;4.90;;;1.60;;
78402;SDS011;67687;43.508;1.504;2023-08-07T12:31:54;3.73;;;1.40;;
78402;SDS011;67687;43.508;1.504;2023-08-07T12:34:21;3.40;;;1.25;;
78402;SDS011;67687;43.508;1.504;2023-08-07T12:36:47;4.63;;;1.40;;
78402;SDS011;67687;43.508;1.504;2023-08-07T12:39:14;4.63;;;1.70;;
78402;SDS011;67687;43.508;1.504;2023-08-07T12:41:41;4.75;;;1.38;;
78402;SDS011;67687;43.508;1.504;2023-08-07T12:44:09;3.87;;;1.20;;
78402;SDS011;67687;43.508;1.504;2023-08-07T12:46:37;4.28;;;1.30;;
78402;SDS011;67687;43.508;1.504;2023-08-07T12:49:05;4.35;;;1.20;;
78402;SDS011;67687;43.508;1.504;2023-08-07T12:51:34;3.97;;;1.50;;
78402;SDS011;67687;43.508;1.504;2023-08-07T12:54:01;5.55;;;1.27;;
78402;SDS011;67687;43.508;1.504;2023-08-07T12:56:28;3.70;;;1.20;;
78402;SDS011;67687;43.508;1.504;2023-08-07T12:58:55;4.18;;;1.52;;
78402;SDS011;67687;43.508;1.504;2023-08-07T13:01:23;5.40;;;1.40;;
78402;SDS011;67687;43.508;1.504;2023-08-07T13:03:50;6.72;;;1.70;;
78402;SDS011;67687;43.508;1.504;2023-08-07T13:06:17;3.70;;;1.30;;
78402;SDS011;67687;43.508;1.504;2023-08-07T13:08:44;3.63;;;1.43;;
78402;SDS011;67687;43.508;1.504;2023-08-07T13:11:11;3.88;;;1.10;;
78402;SDS011;67687;43.508;1.504;2023-08-07T13:13:38;4.28;;;1.55;;
78402;SDS011;67687;43.508;1.504;2023-08-07T13:16:05;3.83;;;1.27;;
78402;SDS011;67687;43.508;1.504;2023-08-07T13:18:33;5.10;;;1.60;;
78402;SDS011;67687;43.508;1.504;2023-08-07T13:21:00;4.37;;;1.17;;
78402;SDS011;67687;43.508;1.504;2023-08-07T13:23:27;3.88;;;1.13;;
78402;SDS011;67687;43.508;1.504;2023-08-07T13:25:53;5.38;;;1.30;;
78402;SDS011;67687;43.508;1.504;2023-08-07T13:28:20;3.83;;;1.38;;
78402;SDS011;67687;43.508;1.504;2023-08-07T13:30:47;4.65;;;1.35;;
78402;SDS011;67687;43.508;1.504;2023-08-07T13:33:15;5.10;;;1.60;;
78402;SDS011;67687;43.508;1.504;2023-08-07T13:35:43;3.90;;;1.27;;
78402;SDS011;67687;43.508;1.504;2023-08-07T13:38:10;3.90;;;1.23;;
78402;SDS011;67687;43.508;1.504;2023-08-07T13:40:39;3.80;;;1.30;;
78402;SDS011;67687;43.508;1.504;2023-08-07T13:43:05;5.00;;;1.50;;
78402;SDS011;67687;43.508;1.504;2023-08-07T13:45:34;4.43;;;1.13;;
78402;SDS011;67687;43.508;1.504;2023-08-07T13:48:01;3.97;;;1.40;;
78402;SDS011;67687;43.508;1.504;2023-08-07T13:50:29;5.32;;;1.10;;
78402;SDS011;67687;43.508;1.504;2023-08-07T13:52:57;3.55;;;1.17;;
78402;SDS011;67687;43.508;1.504;2023-08-07T13:55:24;4.07;;;1.20;;
78402;SDS011;67687;43.508;1.504;2023-08-07T13:57:50;3.77;;;1.17;;
78402;SDS011;67687;43.508;1.504;2023-08-07T14:00:17;3.97;;;1.20;;
78402;SDS011;67687;43.508;1.504;2023-08-07T14:02:44;3.28;;;1.20;;
78402;SDS011;67687;43.508;1.504;2023-08-07T14:05:11;3.05;;;1.20;;
78402;SDS011;67687;43.508;1.504;2023-08-07T14:07:37;3.30;;;1.20;;
78402;SDS011;67687;43.508;1.504;2023-08-07T14:10:06;3.37;;;1.17;;
78402;SDS011;67687;43.508;1.504;2023-08-07T14:12:33;3.53;;;1.00;;
78402;SDS011;67687;43.508;1.504;2023-08-07T14:15:00;3.78;;;1.17;;
78402;SDS011;67687;43.508;1.504;2023-08-07T14:17:26;3.22;;;1.08;;
78402;SDS011;67687;43.508;1.504;2023-08-07T14:19:53;2.92;;;1.10;;
78402;SDS011;67687;43.508;1.504;2023-08-07T14:22:20;3.87;;;1.40;;
78402;SDS011;67687;43.508;1.504;2023-08-07T14:24:46;3.90;;;1.17;;
78402;SDS011;67687;43.508;1.504;2023-08-07T14:27:14;4.18;;;1.13;;
78402;SDS011;67687;43.508;1.504;2023-08-07T14:29:41;3.30;;;1.20;;
78402;SDS011;67687;43.508;1.504;2023-08-07T14:32:08;4.90;;;1.25;;
78402;SDS011;67687;43.508;1.504;2023-08-07T14:34:35;3.50;;;1.20;;
78402;SDS011;67687;43.508;1.504;2023-08-07T14:37:01;3.78;;;1.00;;
78402;SDS011;67687;43.508;1.504;2023-08-07T14:39:28;3.50;;;1.30;;
78402;SDS011;67687;43.508;1.504;2023-08-07T14:41:55;5.13;;;1.00;;
78402;SDS011;67687;43.508;1.504;2023-08-07T14:44:23;3.85;;;1.40;;
78402;SDS011;67687;43.508;1.504;2023-08-07T14:46:50;3.73;;;1.37;;
78402;SDS011;67687;43.508;1.504;2023-08-07T14:49:16;2.78;;;1.02;;
78402;SDS011;67687;43.508;1.504;2023-08-07T14:51:43;3.60;;;1.08;;